All Spectrum Aviation - Van Nuys Airport - KVNY

HOME

Van Nuys Tower Recordings

Condor Squadron KVNY Webcam

Visit our Electronics Store

Condor Squadron Webcam - Van Nuys Airport - KVNY
Picture taken: Mon, 23 Jan 2017 04:28:19 -0800
YouTube Channel!    Latest Timelapse Movie    Full Size Image    Regular Size Image    

2017/01/23 11:51 KVNY 231151Z AUTO VRB03KT 8SM -RA FEW026 BKN043 OVC055 09/08 A2987 RMK AO2 RAB42 SLP113 P0001 60006 70181 T00890078 10117 20083 56003

HOME

Van Nuys Tower Recordings

Condor Squadron KVNY Webcam

Visit our Electronics Store